createdAt,value
2018-05-23T00:01:41.207Z,5.30
2018-05-23T00:06:51.137Z,3.15
2018-05-23T00:11:54.403Z,4.35
2018-05-23T00:16:59.690Z,4.37
2018-05-23T00:22:02.904Z,4.07
2018-05-23T00:27:06.537Z,5.37
2018-05-23T00:32:11.056Z,3.95
2018-05-23T00:37:14.968Z,3.78
2018-05-23T00:42:18.389Z,3.22
2018-05-23T00:47:21.633Z,4.03
2018-05-23T00:52:24.871Z,3.90
2018-05-23T00:57:28.123Z,3.90
2018-05-23T01:02:31.365Z,3.90
2018-05-23T01:07:34.604Z,4.20
2018-05-23T01:12:37.832Z,4.25
2018-05-23T01:17:41.440Z,3.72
2018-05-23T01:22:45.151Z,3.78
2018-05-23T01:27:48.767Z,4.82
2018-05-23T01:32:52.487Z,5.72
2018-05-23T01:37:56.095Z,2.80
2018-05-23T01:42:59.346Z,3.58
2018-05-23T01:53:37.691Z,8.63
2018-05-23T01:58:41.068Z,3.90
2018-05-23T02:09:19.369Z,4.28
2018-05-23T02:14:22.746Z,3.83
2018-05-23T02:19:27.792Z,3.35
2018-05-23T02:24:31.169Z,5.18
2018-05-23T02:29:35.767Z,5.90
2018-05-23T02:34:39.030Z,6.00
2018-05-23T02:39:42.503Z,5.62
2018-05-23T02:44:46.007Z,5.12
2018-05-23T02:49:49.276Z,4.85
2018-05-23T02:54:54.130Z,4.28
2018-05-23T02:59:58.819Z,5.43
2018-05-23T03:05:02.073Z,5.47
2018-05-23T03:10:05.469Z,7.50
2018-05-23T03:15:09.493Z,4.35
2018-05-23T03:20:12.860Z,5.00
2018-05-23T03:25:16.416Z,5.40
2018-05-23T03:30:19.701Z,7.80
2018-05-23T03:35:22.933Z,10.55
2018-05-23T03:40:26.750Z,6.05
2018-05-23T03:45:30.378Z,5.28
2018-05-23T03:50:34.125Z,6.00
2018-05-23T03:55:37.365Z,5.25
2018-05-23T04:00:52.764Z,5.72
2018-05-23T04:11:32.877Z,5.28
2018-05-23T04:16:36.519Z,5.80
2018-05-23T04:21:39.775Z,4.50
2018-05-23T04:26:43.003Z,5.55
2018-05-23T04:31:46.275Z,5.97
2018-05-23T04:36:49.497Z,5.40
2018-05-23T04:41:52.743Z,6.37
2018-05-23T04:46:56.418Z,5.60
2018-05-23T04:51:59.720Z,6.20
2018-05-23T04:57:02.947Z,6.37
2018-05-23T05:02:06.368Z,6.95
2018-05-23T05:07:10.698Z,5.50
2018-05-23T05:12:14.340Z,5.03
2018-05-23T05:17:17.721Z,5.80
2018-05-23T05:22:20.935Z,5.00
2018-05-23T05:27:24.589Z,6.15
2018-05-23T05:32:27.834Z,4.82
2018-05-23T05:37:32.071Z,5.25
2018-05-23T05:42:35.287Z,4.20
2018-05-23T05:47:38.912Z,3.70
2018-05-23T05:52:42.556Z,5.20
2018-05-23T05:57:46.371Z,4.18
2018-05-23T06:02:49.728Z,4.50
2018-05-23T06:07:52.949Z,5.05
2018-05-23T06:12:56.168Z,5.15
2018-05-23T06:17:59.789Z,3.87
2018-05-23T06:23:03.018Z,3.30
2018-05-23T06:28:06.277Z,4.22
2018-05-23T06:33:09.993Z,3.92
2018-05-23T06:38:13.202Z,4.22
2018-05-23T06:43:16.448Z,4.43
2018-05-23T06:48:19.686Z,4.95
2018-05-23T06:53:23.133Z,4.37
2018-05-23T06:58:26.751Z,4.12
2018-05-23T07:03:30.149Z,3.67
2018-05-23T07:08:33.362Z,3.87
2018-05-23T07:13:37.018Z,6.30
2018-05-23T07:18:40.238Z,4.90
2018-05-23T07:23:43.655Z,4.18
2018-05-23T07:28:46.892Z,5.72
2018-05-23T07:33:50.370Z,3.70
2018-05-23T07:38:54.027Z,3.60
2018-05-23T07:43:57.250Z,4.25
2018-05-23T07:49:00.619Z,5.78
2018-05-23T07:54:04.318Z,5.20
2018-05-23T07:59:07.562Z,4.80
2018-05-23T08:04:10.844Z,6.28
2018-05-23T08:09:14.857Z,4.60
2018-05-23T08:14:18.572Z,3.53
2018-05-23T08:19:21.981Z,3.75
2018-05-23T08:24:25.304Z,3.42
2018-05-23T08:29:28.700Z,3.97
2018-05-23T08:34:32.014Z,3.12
2018-05-23T08:39:35.462Z,3.60
2018-05-23T08:44:38.999Z,3.17
2018-05-23T08:49:42.443Z,4.97
2018-05-23T08:54:46.179Z,3.42
2018-05-23T08:59:49.854Z,5.75
2018-05-23T09:04:53.170Z,3.53
2018-05-23T09:09:56.972Z,2.35
2018-05-23T09:15:00.207Z,2.45
2018-05-23T09:20:03.544Z,3.58
2018-05-23T09:25:06.837Z,1.35
2018-05-23T09:30:10.785Z,1.73
2018-05-23T09:35:14.106Z,3.75
2018-05-23T09:40:17.368Z,3.45
2018-05-23T09:45:21.039Z,1.90
2018-05-23T09:50:24.333Z,2.40
2018-05-23T09:55:27.692Z,2.62
2018-05-23T10:00:31.381Z,4.43
2018-05-23T10:05:34.702Z,1.65
2018-05-23T10:10:38.035Z,2.53
2018-05-23T10:15:41.741Z,2.00
2018-05-23T10:20:45.068Z,4.03
2018-05-23T10:25:48.316Z,3.35
2018-05-23T10:30:51.568Z,2.22
2018-05-23T10:35:55.186Z,1.98
2018-05-23T10:40:59.167Z,1.90
2018-05-23T10:46:02.517Z,3.28
2018-05-23T10:51:06.461Z,1.52
2018-05-23T10:56:09.705Z,2.65
2018-05-23T11:01:12.947Z,1.52
2018-05-23T11:06:16.585Z,1.20
2018-05-23T11:11:20.377Z,2.10
2018-05-23T11:16:23.984Z,1.23
2018-05-23T11:21:27.602Z,1.58
2018-05-23T11:26:30.837Z,1.83
2018-05-23T11:31:34.059Z,1.85
2018-05-23T11:36:37.942Z,4.70
2018-05-23T11:41:41.585Z,1.30
2018-05-23T11:46:44.922Z,1.75
2018-05-23T11:51:48.094Z,1.90
2018-05-23T11:56:51.323Z,2.03
2018-05-23T12:01:54.612Z,1.90
2018-05-23T12:06:58.233Z,1.17
2018-05-23T12:12:01.486Z,2.95
2018-05-23T12:17:04.706Z,1.27
2018-05-23T12:22:08.128Z,3.28
2018-05-23T12:27:11.760Z,1.45
2018-05-23T12:32:15.260Z,1.60
2018-05-23T12:37:18.495Z,2.37
2018-05-23T12:42:21.852Z,1.50
2018-05-23T12:47:25.081Z,1.62
2018-05-23T12:52:28.368Z,2.12
2018-05-23T12:57:31.979Z,1.48
2018-05-23T13:02:35.596Z,1.50
2018-05-23T13:07:39.301Z,2.47
2018-05-23T13:12:42.641Z,1.70
2018-05-23T13:17:45.853Z,1.33
2018-05-23T13:22:49.081Z,1.60
2018-05-23T13:27:52.441Z,1.30
2018-05-23T13:32:55.851Z,1.12
2018-05-23T13:37:59.580Z,1.35
2018-05-23T13:43:02.876Z,1.85
2018-05-23T13:48:06.535Z,3.20
2018-05-23T13:53:09.907Z,2.55
2018-05-23T13:58:13.565Z,1.50
2018-05-23T14:03:16.819Z,2.35
2018-05-23T14:08:20.049Z,2.42
2018-05-23T14:13:23.285Z,1.42
2018-05-23T14:18:26.775Z,1.52
2018-05-23T14:23:30.410Z,3.00
2018-05-23T14:28:33.851Z,1.40
2018-05-23T14:33:37.183Z,2.25
2018-05-23T14:38:40.832Z,1.98
2018-05-23T14:43:44.173Z,2.55
2018-05-23T14:48:47.359Z,1.50
2018-05-23T14:53:50.580Z,1.33
2018-05-23T14:58:53.833Z,2.50
2018-05-23T15:03:57.073Z,1.48
2018-05-23T15:09:01.517Z,2.15
2018-05-23T15:14:04.740Z,2.15
2018-05-23T15:19:07.982Z,1.60
2018-05-23T15:24:11.231Z,2.58
2018-05-23T15:29:14.619Z,1.90
2018-05-23T15:34:18.066Z,1.95
2018-05-23T15:39:21.306Z,2.85
2018-05-23T15:44:25.013Z,1.65
2018-05-23T15:49:28.635Z,2.62
2018-05-23T15:59:38.340Z,2.28
2018-05-23T16:04:41.612Z,2.15
2018-05-23T16:09:45.235Z,1.70
2018-05-23T16:14:48.907Z,1.45
2018-05-23T16:19:52.349Z,1.65
2018-05-23T16:24:55.973Z,1.55
2018-05-23T16:29:59.234Z,1.40
2018-05-23T16:35:02.554Z,1.83
2018-05-23T16:40:05.885Z,2.35
2018-05-23T16:45:09.523Z,2.00
2018-05-23T16:50:12.731Z,1.55
2018-05-23T16:55:15.991Z,1.60
2018-05-23T17:00:19.904Z,2.10
2018-05-23T17:05:23.639Z,1.65
2018-05-23T17:10:27.036Z,4.07
2018-05-23T17:15:30.664Z,1.65
2018-05-23T17:20:33.892Z,1.75
2018-05-23T17:25:37.154Z,2.42
2018-05-23T17:30:40.455Z,2.33
2018-05-23T17:35:43.725Z,2.58
2018-05-23T17:40:47.025Z,1.80
2018-05-23T17:45:50.269Z,3.72
2018-05-23T17:50:53.638Z,3.33
2018-05-23T17:55:57.061Z,2.75
2018-05-23T18:01:00.300Z,2.25
2018-05-23T18:06:03.757Z,2.33
2018-05-23T18:11:07.297Z,4.28
2018-05-23T18:16:10.991Z,2.28
2018-05-23T18:21:14.601Z,3.58
2018-05-23T18:26:17.903Z,2.58
2018-05-23T18:31:21.206Z,4.28
2018-05-23T18:36:24.841Z,6.70
2018-05-23T18:41:28.223Z,5.75
2018-05-23T18:46:31.661Z,4.87
2018-05-23T18:51:34.877Z,19.12
2018-05-23T18:56:38.237Z,4.18
2018-05-23T19:01:41.859Z,4.93
2018-05-23T19:06:45.468Z,6.20
2018-05-23T19:11:49.109Z,3.17
2018-05-23T19:16:52.574Z,4.68
2018-05-23T19:21:56.255Z,7.68
2018-05-23T19:26:59.590Z,5.07
2018-05-23T19:32:03.269Z,3.30
2018-05-23T19:37:06.533Z,4.00
2018-05-23T19:42:09.795Z,5.43
2018-05-23T19:47:13.134Z,2.92
2018-05-23T19:52:16.624Z,3.70
2018-05-23T19:57:20.429Z,5.05
2018-05-23T20:02:23.641Z,5.30
2018-05-23T20:07:27.266Z,6.15
2018-05-23T20:12:30.975Z,5.30
2018-05-23T20:17:35.407Z,5.47
2018-05-23T20:22:39.136Z,7.18
2018-05-23T20:27:42.415Z,4.35
2018-05-23T20:32:45.664Z,7.32
2018-05-23T20:37:48.903Z,6.45
2018-05-23T20:42:52.152Z,5.53
2018-05-23T20:47:58.810Z,7.03
2018-05-23T20:53:02.105Z,6.47
2018-05-23T20:58:05.517Z,4.03
2018-05-23T21:03:08.765Z,4.37
2018-05-23T21:08:12.074Z,5.90
2018-05-23T21:13:15.366Z,4.97
2018-05-23T21:18:18.614Z,5.10
2018-05-23T21:23:21.974Z,4.28
2018-05-23T21:28:25.195Z,5.28
2018-05-23T21:33:28.823Z,4.35
2018-05-23T21:38:32.057Z,4.15
2018-05-23T21:43:35.612Z,4.47
2018-05-23T21:48:39.986Z,6.25
2018-05-23T21:53:43.211Z,4.35
2018-05-23T21:58:46.439Z,5.00
2018-05-23T22:03:49.710Z,9.80
2018-05-23T22:08:52.932Z,5.28
2018-05-23T22:13:56.156Z,4.28
2018-05-23T22:18:59.401Z,5.40
2018-05-23T22:24:02.620Z,4.43
2018-05-23T22:29:05.886Z,7.25
2018-05-23T22:34:09.542Z,7.68
2018-05-23T22:39:12.916Z,6.70
2018-05-23T22:44:16.545Z,6.35
2018-05-23T22:49:19.823Z,5.40
2018-05-23T22:54:23.082Z,7.00
2018-05-23T22:59:27.056Z,6.50
2018-05-23T23:04:30.697Z,6.35
2018-05-23T23:09:34.526Z,6.57
2018-05-23T23:14:37.899Z,8.50
2018-05-23T23:19:41.531Z,6.55
2018-05-23T23:24:45.150Z,7.90
2018-05-23T23:29:48.374Z,5.90
2018-05-23T23:34:51.608Z,6.18
2018-05-23T23:39:54.825Z,6.35
2018-05-23T23:44:58.167Z,6.28
2018-05-23T23:50:01.812Z,6.25
2018-05-23T23:55:05.029Z,6.90
